sensor_id;sensor_type;location;lat;lon;timestamp;pressure;altitude;pressure_sealevel;temperature;humidity
33151;BME280;19508;42.578;23.416;2023-08-21T00:00:01;94038.00;;;20.34;68.56
33151;BME280;19508;42.578;23.416;2023-08-21T00:02:27;94045.28;;;20.39;68.66
33151;BME280;19508;42.578;23.416;2023-08-21T00:04:53;94061.16;;;20.50;68.15
33151;BME280;19508;42.578;23.416;2023-08-21T00:07:19;94050.66;;;20.44;68.44
33151;BME280;19508;42.578;23.416;2023-08-21T00:09:45;94050.41;;;20.40;68.46
33151;BME280;19508;42.578;23.416;2023-08-21T00:12:10;94045.59;;;20.37;68.35
33151;BME280;19508;42.578;23.416;2023-08-21T00:14:36;94052.41;;;20.26;69.38
33151;BME280;19508;42.578;23.416;2023-08-21T00:17:02;94039.84;;;20.25;69.27
33151;BME280;19508;42.578;23.416;2023-08-21T00:19:28;94035.38;;;20.29;68.69
33151;BME280;19508;42.578;23.416;2023-08-21T00:21:54;94042.34;;;20.35;68.89
33151;BME280;19508;42.578;23.416;2023-08-21T00:24:19;94044.22;;;20.26;69.10
33151;BME280;19508;42.578;23.416;2023-08-21T00:26:44;94038.94;;;20.16;69.29
33151;BME280;19508;42.578;23.416;2023-08-21T00:29:10;94032.41;;;20.03;69.89
33151;BME280;19508;42.578;23.416;2023-08-21T00:31:35;94042.94;;;20.10;69.69
33151;BME280;19508;42.578;23.416;2023-08-21T00:34:01;94050.00;;;20.11;69.75
33151;BME280;19508;42.578;23.416;2023-08-21T00:36:26;94042.81;;;20.15;69.33
33151;BME280;19508;42.578;23.416;2023-08-21T00:38:52;94034.53;;;20.06;69.54
33151;BME280;19508;42.578;23.416;2023-08-21T00:41:17;94045.28;;;20.03;69.91
33151;BME280;19508;42.578;23.416;2023-08-21T00:43:43;94049.72;;;19.98;70.31
33151;BME280;19508;42.578;23.416;2023-08-21T00:46:08;94044.47;;;19.88;70.58
33151;BME280;19508;42.578;23.416;2023-08-21T00:48:34;94047.13;;;19.93;70.21
33151;BME280;19508;42.578;23.416;2023-08-21T00:50:59;94057.72;;;19.81;71.04
33151;BME280;19508;42.578;23.416;2023-08-21T00:53:25;94054.72;;;19.83;70.93
33151;BME280;19508;42.578;23.416;2023-08-21T00:55:50;94056.34;;;19.84;70.89
33151;BME280;19508;42.578;23.416;2023-08-21T00:58:16;94057.94;;;19.85;70.58
33151;BME280;19508;42.578;23.416;2023-08-21T01:00:44;94060.28;;;19.91;70.41
33151;BME280;19508;42.578;23.416;2023-08-21T01:03:10;94065.44;;;19.93;70.54
33151;BME280;19508;42.578;23.416;2023-08-21T01:05:36;94063.59;;;19.88;70.57
33151;BME280;19508;42.578;23.416;2023-08-21T01:08:09;94068.25;;;19.88;70.82
33151;BME280;19508;42.578;23.416;2023-08-21T01:10:47;94069.19;;;19.83;71.00
33151;BME280;19508;42.578;23.416;2023-08-21T01:13:41;94065.94;;;19.81;71.27
33151;BME280;19508;42.578;23.416;2023-08-21T01:16:10;94064.13;;;19.77;70.84
33151;BME280;19508;42.578;23.416;2023-08-21T01:18:37;94070.00;;;19.70;71.57
33151;BME280;19508;42.578;23.416;2023-08-21T01:21:04;94070.31;;;19.68;71.39
33151;BME280;19508;42.578;23.416;2023-08-21T01:23:34;94064.44;;;19.75;71.48
33151;BME280;19508;42.578;23.416;2023-08-21T01:26:00;94059.69;;;19.67;71.27
33151;BME280;19508;42.578;23.416;2023-08-21T01:28:26;94071.81;;;19.61;71.90
33151;BME280;19508;42.578;23.416;2023-08-21T01:30:57;94060.28;;;19.64;71.63
33151;BME280;19508;42.578;23.416;2023-08-21T01:33:26;94057.03;;;19.62;71.65
33151;BME280;19508;42.578;23.416;2023-08-21T01:35:51;94072.81;;;19.65;71.68
33151;BME280;19508;42.578;23.416;2023-08-21T01:38:17;94064.75;;;19.60;71.54
33151;BME280;19508;42.578;23.416;2023-08-21T01:40:43;94058.97;;;19.61;71.76
33151;BME280;19508;42.578;23.416;2023-08-21T01:43:08;94062.19;;;19.50;72.21
33151;BME280;19508;42.578;23.416;2023-08-21T01:45:34;94067.84;;;19.53;72.14
33151;BME280;19508;42.578;23.416;2023-08-21T01:47:59;94061.38;;;19.49;72.27
33151;BME280;19508;42.578;23.416;2023-08-21T01:50:24;94071.63;;;19.57;72.11
33151;BME280;19508;42.578;23.416;2023-08-21T01:52:50;94061.66;;;19.48;72.23
33151;BME280;19508;42.578;23.416;2023-08-21T01:55:15;94069.34;;;19.32;73.15
33151;BME280;19508;42.578;23.416;2023-08-21T01:57:41;94063.78;;;19.37;72.90
33151;BME280;19508;42.578;23.416;2023-08-21T02:00:08;94062.78;;;19.47;72.42
33151;BME280;19508;42.578;23.416;2023-08-21T02:02:33;94049.75;;;19.43;72.73
33151;BME280;19508;42.578;23.416;2023-08-21T02:04:59;94055.81;;;19.40;72.54
33151;BME280;19508;42.578;23.416;2023-08-21T02:07:24;94052.06;;;19.36;73.01
33151;BME280;19508;42.578;23.416;2023-08-21T02:09:50;94054.16;;;19.39;72.97
33151;BME280;19508;42.578;23.416;2023-08-21T02:12:15;94055.28;;;19.38;72.88
33151;BME280;19508;42.578;23.416;2023-08-21T02:14:40;94054.28;;;19.34;72.77
33151;BME280;19508;42.578;23.416;2023-08-21T02:17:06;94054.78;;;19.36;72.74
33151;BME280;19508;42.578;23.416;2023-08-21T02:19:31;94057.63;;;19.31;72.81
33151;BME280;19508;42.578;23.416;2023-08-21T02:21:56;94045.50;;;19.24;72.73
33151;BME280;19508;42.578;23.416;2023-08-21T02:24:22;94045.97;;;19.12;73.42
33151;BME280;19508;42.578;23.416;2023-08-21T02:26:47;94046.47;;;19.14;73.25
33151;BME280;19508;42.578;23.416;2023-08-21T02:29:13;94049.31;;;19.23;72.87
33151;BME280;19508;42.578;23.416;2023-08-21T02:31:38;94043.34;;;19.21;73.13
33151;BME280;19508;42.578;23.416;2023-08-21T02:34:04;94047.38;;;19.09;73.63
33151;BME280;19508;42.578;23.416;2023-08-21T02:36:29;94039.38;;;19.13;73.70
33151;BME280;19508;42.578;23.416;2023-08-21T02:38:55;94046.75;;;19.12;73.69
33151;BME280;19508;42.578;23.416;2023-08-21T02:41:21;94053.31;;;18.98;74.21
33151;BME280;19508;42.578;23.416;2023-08-21T02:43:46;94047.47;;;19.04;74.00
33151;BME280;19508;42.578;23.416;2023-08-21T02:46:11;94048.19;;;19.10;73.79
33151;BME280;19508;42.578;23.416;2023-08-21T02:48:37;94045.97;;;19.12;73.49
33151;BME280;19508;42.578;23.416;2023-08-21T02:51:02;94039.06;;;19.01;74.23
33151;BME280;19508;42.578;23.416;2023-08-21T02:53:29;94047.47;;;19.04;74.08
33151;BME280;19508;42.578;23.416;2023-08-21T02:55:54;94053.22;;;19.03;74.30
33151;BME280;19508;42.578;23.416;2023-08-21T02:58:20;94057.56;;;19.04;74.12
33151;BME280;19508;42.578;23.416;2023-08-21T03:00:45;94053.94;;;19.08;73.65
33151;BME280;19508;42.578;23.416;2023-08-21T03:03:10;94052.09;;;19.04;73.82
33151;BME280;19508;42.578;23.416;2023-08-21T03:05:36;94054.53;;;18.92;74.16
33151;BME280;19508;42.578;23.416;2023-08-21T03:08:02;94052.78;;;18.96;73.99
33151;BME280;19508;42.578;23.416;2023-08-21T03:10:27;94054.84;;;19.04;73.68
33151;BME280;19508;42.578;23.416;2023-08-21T03:12:55;94057.69;;;18.99;73.81
33151;BME280;19508;42.578;23.416;2023-08-21T03:15:20;94061.09;;;18.91;74.18
33151;BME280;19508;42.578;23.416;2023-08-21T03:17:45;94058.00;;;18.78;74.80
33151;BME280;19508;42.578;23.416;2023-08-21T03:20:11;94064.56;;;18.77;74.88
33151;BME280;19508;42.578;23.416;2023-08-21T03:22:36;94068.72;;;18.75;75.08
33151;BME280;19508;42.578;23.416;2023-08-21T03:25:02;94066.50;;;18.77;74.88
33151;BME280;19508;42.578;23.416;2023-08-21T03:27:28;94066.97;;;18.65;76.34
33151;BME280;19508;42.578;23.416;2023-08-21T03:29:53;94064.63;;;18.40;78.53
33151;BME280;19508;42.578;23.416;2023-08-21T03:32:19;94076.69;;;18.33;78.85
33151;BME280;19508;42.578;23.416;2023-08-21T03:34:44;94085.31;;;18.41;78.31
33151;BME280;19508;42.578;23.416;2023-08-21T03:37:10;94081.34;;;18.33;78.69
33151;BME280;19508;42.578;23.416;2023-08-21T03:39:35;94087.59;;;18.33;78.40
33151;BME280;19508;42.578;23.416;2023-08-21T03:42:01;94070.56;;;18.42;77.49
33151;BME280;19508;42.578;23.416;2023-08-21T03:44:27;94080.47;;;18.38;77.66
33151;BME280;19508;42.578;23.416;2023-08-21T03:46:52;94080.38;;;18.43;77.18
33151;BME280;19508;42.578;23.416;2023-08-21T03:49:18;94063.19;;;18.42;76.98
33151;BME280;19508;42.578;23.416;2023-08-21T03:51:43;94077.94;;;18.41;77.17
33151;BME280;19508;42.578;23.416;2023-08-21T03:54:09;94071.06;;;18.44;77.29
33151;BME280;19508;42.578;23.416;2023-08-21T03:56:34;94085.44;;;18.49;77.38
33151;BME280;19508;42.578;23.416;2023-08-21T03:59:00;94081.91;;;18.49;76.83
33151;BME280;19508;42.578;23.416;2023-08-21T04:01:25;94087.94;;;18.65;76.41
33151;BME280;19508;42.578;23.416;2023-08-21T04:03:51;94074.09;;;18.61;76.48
33151;BME280;19508;42.578;23.416;2023-08-21T04:06:16;94082.13;;;18.71;76.36
33151;BME280;19508;42.578;23.416;2023-08-21T04:08:42;94085.53;;;18.63;76.38
33151;BME280;19508;42.578;23.416;2023-08-21T04:11:07;94083.16;;;18.75;76.46
33151;BME280;19508;42.578;23.416;2023-08-21T04:13:33;94086.09;;;18.79;76.21
33151;BME280;19508;42.578;23.416;2023-08-21T04:15:58;94069.44;;;18.80;75.67
33151;BME280;19508;42.578;23.416;2023-08-21T04:18:24;94079.16;;;18.86;75.76
33151;BME280;19508;42.578;23.416;2023-08-21T04:20:50;94087.25;;;18.92;75.68
33151;BME280;19508;42.578;23.416;2023-08-21T04:23:15;94085.03;;;18.94;75.08
33151;BME280;19508;42.578;23.416;2023-08-21T04:25:41;94095.34;;;18.97;75.17
33151;BME280;19508;42.578;23.416;2023-08-21T04:28:06;94075.75;;;18.95;74.62
33151;BME280;19508;42.578;23.416;2023-08-21T04:30:33;94088.00;;;19.11;74.28
33151;BME280;19508;42.578;23.416;2023-08-21T04:32:59;94096.88;;;19.03;74.62
33151;BME280;19508;42.578;23.416;2023-08-21T04:35:25;94076.78;;;18.99;74.74
33151;BME280;19508;42.578;23.416;2023-08-21T04:37:50;94082.28;;;19.26;74.27
33151;BME280;19508;42.578;23.416;2023-08-21T04:40:16;94085.53;;;19.56;73.84
33151;BME280;19508;42.578;23.416;2023-08-21T04:42:43;94088.50;;;19.73;72.78
33151;BME280;19508;42.578;23.416;2023-08-21T04:45:09;94090.22;;;19.96;72.49
33151;BME280;19508;42.578;23.416;2023-08-21T04:47:35;94078.66;;;20.13;71.77
33151;BME280;19508;42.578;23.416;2023-08-21T04:50:00;94093.19;;;20.36;70.75
33151;BME280;19508;42.578;23.416;2023-08-21T04:52:26;94094.69;;;20.56;70.28
33151;BME280;19508;42.578;23.416;2023-08-21T04:54:52;94078.59;;;20.77;68.95
33151;BME280;19508;42.578;23.416;2023-08-21T04:57:17;94083.25;;;20.99;68.66
33151;BME280;19508;42.578;23.416;2023-08-21T04:59:46;94094.59;;;21.28;68.21
33151;BME280;19508;42.578;23.416;2023-08-21T05:02:12;94092.09;;;21.49;67.52
33151;BME280;19508;42.578;23.416;2023-08-21T05:04:37;94091.25;;;21.71;66.88
33151;BME280;19508;42.578;23.416;2023-08-21T05:07:04;94100.66;;;21.96;65.89
33151;BME280;19508;42.578;23.416;2023-08-21T05:09:30;94096.34;;;22.04;64.68
33151;BME280;19508;42.578;23.416;2023-08-21T05:11:55;94093.16;;;22.10;64.17
33151;BME280;19508;42.578;23.416;2023-08-21T05:14:21;94104.19;;;22.45;63.87
33151;BME280;19508;42.578;23.416;2023-08-21T05:16:48;94109.22;;;22.60;62.68
33151;BME280;19508;42.578;23.416;2023-08-21T05:19:14;94109.09;;;22.83;62.60
33151;BME280;19508;42.578;23.416;2023-08-21T05:21:40;94109.25;;;23.03;61.13
33151;BME280;19508;42.578;23.416;2023-08-21T05:24:05;94105.69;;;23.12;61.35
33151;BME280;19508;42.578;23.416;2023-08-21T05:26:31;94098.91;;;23.09;60.45
33151;BME280;19508;42.578;23.416;2023-08-21T05:28:56;94123.25;;;23.45;61.60
33151;BME280;19508;42.578;23.416;2023-08-21T05:31:22;94109.91;;;23.82;59.69
33151;BME280;19508;42.578;23.416;2023-08-21T05:33:47;94107.41;;;23.98;59.56
33151;BME280;19508;42.578;23.416;2023-08-21T05:36:12;94101.06;;;24.06;58.71
33151;BME280;19508;42.578;23.416;2023-08-21T05:38:38;94112.41;;;24.04;58.27
33151;BME280;19508;42.578;23.416;2023-08-21T05:41:03;94103.84;;;24.35;57.68
33151;BME280;19508;42.578;23.416;2023-08-21T05:43:29;94103.94;;;24.47;57.46
33151;BME280;19508;42.578;23.416;2023-08-21T05:45:55;94111.50;;;24.80;57.29
33151;BME280;19508;42.578;23.416;2023-08-21T05:48:21;94102.56;;;25.37;56.03
33151;BME280;19508;42.578;23.416;2023-08-21T05:50:51;94110.53;;;25.84;55.38
33151;BME280;19508;42.578;23.416;2023-08-21T05:53:16;94105.97;;;26.37;53.28
33151;BME280;19508;42.578;23.416;2023-08-21T05:55:41;94095.25;;;26.84;51.88
33151;BME280;19508;42.578;23.416;2023-08-21T05:58:07;94103.69;;;27.44;50.39
33151;BME280;19508;42.578;23.416;2023-08-21T06:00:33;94099.84;;;27.76;48.56
33151;BME280;19508;42.578;23.416;2023-08-21T06:02:59;94096.72;;;28.25;47.90
33151;BME280;19508;42.578;23.416;2023-08-21T06:05:24;94096.72;;;28.57;47.00
33151;BME280;19508;42.578;23.416;2023-08-21T06:07:50;94096.66;;;28.88;46.96
33151;BME280;19508;42.578;23.416;2023-08-21T06:10:17;94095.66;;;28.97;45.18
33151;BME280;19508;42.578;23.416;2023-08-21T06:12:42;94106.47;;;29.02;46.01
33151;BME280;19508;42.578;23.416;2023-08-21T06:15:08;94100.56;;;28.87;44.75
33151;BME280;19508;42.578;23.416;2023-08-21T06:17:34;94104.22;;;29.27;43.63
33151;BME280;19508;42.578;23.416;2023-08-21T06:19:59;94104.44;;;28.99;44.86
33151;BME280;19508;42.578;23.416;2023-08-21T06:22:25;94112.03;;;29.40;44.30
33151;BME280;19508;42.578;23.416;2023-08-21T06:24:50;94106.19;;;29.45;42.25
33151;BME280;19508;42.578;23.416;2023-08-21T06:27:15;94111.03;;;29.91;39.81
33151;BME280;19508;42.578;23.416;2023-08-21T06:29:41;94111.34;;;30.28;40.46
33151;BME280;19508;42.578;23.416;2023-08-21T06:32:06;94106.16;;;30.76;40.77
33151;BME280;19508;42.578;23.416;2023-08-21T06:34:32;94113.19;;;31.23;39.69
33151;BME280;19508;42.578;23.416;2023-08-21T06:36:57;94109.53;;;31.45;37.42
33151;BME280;19508;42.578;23.416;2023-08-21T06:39:22;94113.16;;;31.83;38.51
33151;BME280;19508;42.578;23.416;2023-08-21T06:41:48;94114.75;;;31.84;36.76
33151;BME280;19508;42.578;23.416;2023-08-21T06:44:13;94109.34;;;32.39;36.32
33151;BME280;19508;42.578;23.416;2023-08-21T06:46:39;94114.63;;;32.51;35.19
33151;BME280;19508;42.578;23.416;2023-08-21T06:49:04;94111.72;;;32.85;35.53
33151;BME280;19508;42.578;23.416;2023-08-21T06:51:29;94102.16;;;32.86;35.29
33151;BME280;19508;42.578;23.416;2023-08-21T06:53:55;94100.84;;;33.34;35.32
33151;BME280;19508;42.578;23.416;2023-08-21T06:56:20;94103.88;;;33.88;33.00
33151;BME280;19508;42.578;23.416;2023-08-21T06:58:46;94109.38;;;33.66;33.75
33151;BME280;19508;42.578;23.416;2023-08-21T07:01:11;94109.09;;;33.97;33.73
33151;BME280;19508;42.578;23.416;2023-08-21T07:03:36;94099.38;;;33.55;33.98
33151;BME280;19508;42.578;23.416;2023-08-21T07:06:02;94108.94;;;33.54;32.93
33151;BME280;19508;42.578;23.416;2023-08-21T07:08:28;94097.16;;;34.07;33.47
33151;BME280;19508;42.578;23.416;2023-08-21T07:10:54;94094.19;;;33.57;32.68
33151;BME280;19508;42.578;23.416;2023-08-21T07:13:20;94100.19;;;33.59;33.32
33151;BME280;19508;42.578;23.416;2023-08-21T07:15:46;94104.31;;;34.01;33.49
33151;BME280;19508;42.578;23.416;2023-08-21T07:18:12;94104.38;;;34.22;33.01
33151;BME280;19508;42.578;23.416;2023-08-21T07:20:37;94106.56;;;33.63;33.75
33151;BME280;19508;42.578;23.416;2023-08-21T07:23:03;94104.84;;;33.33;33.51
33151;BME280;19508;42.578;23.416;2023-08-21T07:25:29;94106.00;;;33.25;34.11
33151;BME280;19508;42.578;23.416;2023-08-21T07:27:56;94098.03;;;33.27;34.13
33151;BME280;19508;42.578;23.416;2023-08-21T07:30:21;94102.38;;;33.21;33.83
33151;BME280;19508;42.578;23.416;2023-08-21T07:32:50;94107.16;;;33.24;33.82
33151;BME280;19508;42.578;23.416;2023-08-21T07:35:15;94101.63;;;33.28;33.71
33151;BME280;19508;42.578;23.416;2023-08-21T07:37:45;94103.47;;;32.99;35.65
33151;BME280;19508;42.578;23.416;2023-08-21T07:40:11;94104.72;;;32.57;35.33
33151;BME280;19508;42.578;23.416;2023-08-21T07:42:36;94105.94;;;32.63;36.05
33151;BME280;19508;42.578;23.416;2023-08-21T07:45:02;94093.41;;;32.36;37.07
33151;BME280;19508;42.578;23.416;2023-08-21T07:47:27;94097.56;;;32.15;37.45
33151;BME280;19508;42.578;23.416;2023-08-21T07:49:53;94102.50;;;32.80;39.04
33151;BME280;19508;42.578;23.416;2023-08-21T07:52:19;94091.47;;;32.40;36.35
33151;BME280;19508;42.578;23.416;2023-08-21T07:54:44;94099.47;;;33.00;36.00
33151;BME280;19508;42.578;23.416;2023-08-21T07:57:09;94100.00;;;33.23;39.15
33151;BME280;19508;42.578;23.416;2023-08-21T07:59:35;94099.31;;;33.41;35.41
33151;BME280;19508;42.578;23.416;2023-08-21T08:02:01;94091.41;;;33.57;35.63
33151;BME280;19508;42.578;23.416;2023-08-21T08:04:28;94089.75;;;33.42;34.07
33151;BME280;19508;42.578;23.416;2023-08-21T08:06:53;94091.88;;;32.97;35.04
33151;BME280;19508;42.578;23.416;2023-08-21T08:09:19;94091.72;;;33.37;33.26
33151;BME280;19508;42.578;23.416;2023-08-21T08:11:44;94092.66;;;32.97;34.10
33151;BME280;19508;42.578;23.416;2023-08-21T08:14:09;94093.00;;;33.51;32.69
33151;BME280;19508;42.578;23.416;2023-08-21T08:16:35;94086.47;;;33.25;32.92
33151;BME280;19508;42.578;23.416;2023-08-21T08:19:00;94089.09;;;33.77;31.66
33151;BME280;19508;42.578;23.416;2023-08-21T08:21:26;94086.31;;;33.87;30.45
33151;BME280;19508;42.578;23.416;2023-08-21T08:23:51;94088.38;;;34.05;33.07
33151;BME280;19508;42.578;23.416;2023-08-21T08:26:17;94080.44;;;34.28;33.58
33151;BME280;19508;42.578;23.416;2023-08-21T08:28:42;94086.00;;;34.21;30.74
33151;BME280;19508;42.578;23.416;2023-08-21T08:31:15;94079.22;;;34.22;31.42
33151;BME280;19508;42.578;23.416;2023-08-21T08:33:40;94074.44;;;34.19;31.58
33151;BME280;19508;42.578;23.416;2023-08-21T08:36:06;94071.69;;;34.55;29.78
33151;BME280;19508;42.578;23.416;2023-08-21T08:38:31;94072.84;;;34.32;30.76
33151;BME280;19508;42.578;23.416;2023-08-21T08:40:57;94078.84;;;34.27;30.30
33151;BME280;19508;42.578;23.416;2023-08-21T08:43:25;94070.84;;;34.36;29.73
33151;BME280;19508;42.578;23.416;2023-08-21T08:45:52;94065.25;;;34.72;29.71
33151;BME280;19508;42.578;23.416;2023-08-21T08:48:19;94062.09;;;34.56;28.86
33151;BME280;19508;42.578;23.416;2023-08-21T08:50:45;94066.03;;;34.83;29.51
33151;BME280;19508;42.578;23.416;2023-08-21T08:53:12;94055.66;;;34.80;31.18
33151;BME280;19508;42.578;23.416;2023-08-21T08:55:39;94056.44;;;34.95;28.73
33151;BME280;19508;42.578;23.416;2023-08-21T08:58:04;94052.88;;;34.59;29.78
33151;BME280;19508;42.578;23.416;2023-08-21T09:00:30;94050.47;;;34.96;32.39
33151;BME280;19508;42.578;23.416;2023-08-21T09:02:57;94051.28;;;34.79;29.27
33151;BME280;19508;42.578;23.416;2023-08-21T09:05:23;94054.84;;;34.83;30.20
33151;BME280;19508;42.578;23.416;2023-08-21T09:08:11;94045.63;;;35.08;28.85
33151;BME280;19508;42.578;23.416;2023-08-21T09:10:38;94058.75;;;35.32;31.56
33151;BME280;19508;42.578;23.416;2023-08-21T09:13:17;94046.75;;;35.31;29.54
33151;BME280;19508;42.578;23.416;2023-08-21T09:15:47;94053.28;;;34.96;29.79
33151;BME280;19508;42.578;23.416;2023-08-21T09:18:13;94054.78;;;35.19;30.66
33151;BME280;19508;42.578;23.416;2023-08-21T09:20:40;94043.59;;;35.19;29.97
33151;BME280;19508;42.578;23.416;2023-08-21T09:23:06;94042.06;;;34.93;28.64
33151;BME280;19508;42.578;23.416;2023-08-21T09:25:38;94047.69;;;34.89;27.82
33151;BME280;19508;42.578;23.416;2023-08-21T09:28:05;94040.88;;;34.83;28.82
33151;BME280;19508;42.578;23.416;2023-08-21T09:30:50;94044.50;;;34.73;28.75
33151;BME280;19508;42.578;23.416;2023-08-21T09:33:20;94046.09;;;34.60;28.94
33151;BME280;19508;42.578;23.416;2023-08-21T09:35:46;94042.91;;;34.65;27.71
33151;BME280;19508;42.578;23.416;2023-08-21T09:38:12;94041.28;;;34.25;27.59
33151;BME280;19508;42.578;23.416;2023-08-21T09:40:41;94034.94;;;34.45;27.75
33151;BME280;19508;42.578;23.416;2023-08-21T09:43:11;94039.66;;;34.84;30.60
33151;BME280;19508;42.578;23.416;2023-08-21T09:45:37;94030.84;;;35.03;29.69
33151;BME280;19508;42.578;23.416;2023-08-21T09:48:03;94031.63;;;35.15;28.66
33151;BME280;19508;42.578;23.416;2023-08-21T09:50:29;94026.34;;;35.34;31.23
33151;BME280;19508;42.578;23.416;2023-08-21T09:52:56;94023.94;;;35.47;27.52
33151;BME280;19508;42.578;23.416;2023-08-21T09:55:22;94005.25;;;35.09;30.15
33151;BME280;19508;42.578;23.416;2023-08-21T09:57:49;94014.81;;;35.18;28.35
33151;BME280;19508;42.578;23.416;2023-08-21T10:00:23;94021.25;;;35.08;27.70
33151;BME280;19508;42.578;23.416;2023-08-21T10:02:50;94022.50;;;34.89;27.35
33151;BME280;19508;42.578;23.416;2023-08-21T10:05:16;94008.91;;;34.77;27.23
33151;BME280;19508;42.578;23.416;2023-08-21T10:07:44;94020.09;;;34.84;28.09
33151;BME280;19508;42.578;23.416;2023-08-21T10:10:11;94016.84;;;35.03;28.33
33151;BME280;19508;42.578;23.416;2023-08-21T10:12:37;93998.75;;;35.47;27.26
33151;BME280;19508;42.578;23.416;2023-08-21T10:15:03;94007.56;;;35.42;28.02
33151;BME280;19508;42.578;23.416;2023-08-21T10:17:30;94010.06;;;35.08;26.79
33151;BME280;19508;42.578;23.416;2023-08-21T10:20:02;93987.66;;;35.15;27.18
33151;BME280;19508;42.578;23.416;2023-08-21T10:22:48;94000.56;;;35.72;27.81
33151;BME280;19508;42.578;23.416;2023-08-21T10:25:18;93989.16;;;35.41;27.10
33151;BME280;19508;42.578;23.416;2023-08-21T10:27:49;93995.84;;;35.65;28.17
33151;BME280;19508;42.578;23.416;2023-08-21T10:30:20;93988.66;;;35.64;26.77
33151;BME280;19508;42.578;23.416;2023-08-21T10:32:49;93993.00;;;35.69;26.00
33151;BME280;19508;42.578;23.416;2023-08-21T10:35:18;93980.50;;;35.07;26.91
33151;BME280;19508;42.578;23.416;2023-08-21T10:41:04;93980.28;;;35.53;26.52
33151;BME280;19508;42.578;23.416;2023-08-21T10:46:09;93980.06;;;35.16;26.75
33151;BME280;19508;42.578;23.416;2023-08-21T10:48:35;93973.94;;;35.46;26.85
33151;BME280;19508;42.578;23.416;2023-08-21T10:51:05;93979.88;;;35.55;27.59
33151;BME280;19508;42.578;23.416;2023-08-21T10:53:31;93958.47;;;35.93;24.49
33151;BME280;19508;42.578;23.416;2023-08-21T10:56:01;93958.94;;;36.29;25.17
33151;BME280;19508;42.578;23.416;2023-08-21T10:58:28;93954.28;;;36.15;26.02
33151;BME280;19508;42.578;23.416;2023-08-21T11:00:59;93969.94;;;35.43;26.59
33151;BME280;19508;42.578;23.416;2023-08-21T11:03:25;93946.16;;;35.76;25.58
33151;BME280;19508;42.578;23.416;2023-08-21T11:06:04;93948.72;;;36.08;26.82
33151;BME280;19508;42.578;23.416;2023-08-21T11:08:32;93963.97;;;36.07;24.81
33151;BME280;19508;42.578;23.416;2023-08-21T11:10:59;93958.50;;;35.82;26.01
33151;BME280;19508;42.578;23.416;2023-08-21T11:13:24;93951.41;;;35.64;25.75
33151;BME280;19508;42.578;23.416;2023-08-21T11:16:04;93944.50;;;35.13;24.72
33151;BME280;19508;42.578;23.416;2023-08-21T11:18:31;93945.34;;;35.76;25.82
33151;BME280;19508;42.578;23.416;2023-08-21T11:21:07;93944.72;;;36.06;25.39
33151;BME280;19508;42.578;23.416;2023-08-21T11:23:40;93945.53;;;36.06;26.29
33151;BME280;19508;42.578;23.416;2023-08-21T11:26:09;93944.88;;;35.88;26.33
33151;BME280;19508;42.578;23.416;2023-08-21T11:28:35;93940.13;;;36.30;25.69
33151;BME280;19508;42.578;23.416;2023-08-21T11:31:00;93933.56;;;36.47;28.34
33151;BME280;19508;42.578;23.416;2023-08-21T11:33:27;93932.03;;;36.39;25.65
33151;BME280;19508;42.578;23.416;2023-08-21T11:35:53;93937.16;;;36.51;27.88
33151;BME280;19508;42.578;23.416;2023-08-21T11:38:20;93933.69;;;36.33;25.94
33151;BME280;19508;42.578;23.416;2023-08-21T11:41:00;93914.00;;;36.43;26.41
33151;BME280;19508;42.578;23.416;2023-08-21T11:43:33;93921.84;;;36.59;24.95
33151;BME280;19508;42.578;23.416;2023-08-21T11:46:07;93919.97;;;36.46;24.50
33151;BME280;19508;42.578;23.416;2023-08-21T11:48:33;93916.81;;;36.43;24.79
33151;BME280;19508;42.578;23.416;2023-08-21T11:51:00;93932.06;;;35.87;25.61
33151;BME280;19508;42.578;23.416;2023-08-21T11:55:59;93922.34;;;36.02;24.26
33151;BME280;19508;42.578;23.416;2023-08-21T11:58:28;93910.97;;;36.24;23.47
33151;BME280;19508;42.578;23.416;2023-08-21T12:00:53;93904.38;;;36.44;23.70
33151;BME280;19508;42.578;23.416;2023-08-21T12:03:19;93915.38;;;36.62;23.36
33151;BME280;19508;42.578;23.416;2023-08-21T12:05:44;93911.81;;;36.96;23.75
33151;BME280;19508;42.578;23.416;2023-08-21T12:08:10;93915.53;;;36.48;23.84
33151;BME280;19508;42.578;23.416;2023-08-21T12:10:36;93927.41;;;37.35;23.31
33151;BME280;19508;42.578;23.416;2023-08-21T12:13:02;93911.97;;;37.46;22.19
33151;BME280;19508;42.578;23.416;2023-08-21T12:15:27;93900.84;;;37.93;22.72
33151;BME280;19508;42.578;23.416;2023-08-21T12:17:53;93908.22;;;38.34;22.75
33151;BME280;19508;42.578;23.416;2023-08-21T12:20:18;93899.38;;;37.85;22.80
33151;BME280;19508;42.578;23.416;2023-08-21T12:22:44;93901.53;;;38.48;21.38
33151;BME280;19508;42.578;23.416;2023-08-21T12:25:09;93904.75;;;39.49;20.71
33151;BME280;19508;42.578;23.416;2023-08-21T12:27:38;93898.91;;;40.25;20.95
33151;BME280;19508;42.578;23.416;2023-08-21T12:30:05;93886.34;;;41.58;18.44
33151;BME280;19508;42.578;23.416;2023-08-21T12:32:30;93889.13;;;42.60;17.88
33151;BME280;19508;42.578;23.416;2023-08-21T12:34:56;93887.75;;;43.43;17.52
33151;BME280;19508;42.578;23.416;2023-08-21T12:37:21;93884.72;;;44.77;16.62
33151;BME280;19508;42.578;23.416;2023-08-21T12:39:47;93881.66;;;45.63;16.37
33151;BME280;19508;42.578;23.416;2023-08-21T12:42:12;93874.72;;;45.54;16.02
33151;BME280;19508;42.578;23.416;2023-08-21T12:44:38;93880.97;;;44.70;16.01
33151;BME280;19508;42.578;23.416;2023-08-21T12:47:04;93885.91;;;44.21;16.20
33151;BME280;19508;42.578;23.416;2023-08-21T12:49:29;93877.97;;;45.01;15.95
33151;BME280;19508;42.578;23.416;2023-08-21T12:51:54;93872.91;;;44.87;15.47
33151;BME280;19508;42.578;23.416;2023-08-21T12:54:20;93885.16;;;43.67;16.24